Jette Viking Hv77 — 5QEP — position and weather

sailwx.info

Track history (hours):
 
Tides and Currents Weather Stations Pressure Air Temp Water Temp Dewpoint Dewpoint Depression Visibility Wind Speed Wind Dir Waves Ship Positions

Jette Viking Hv77

Last reported at 2014-Aug-20 04:30 UTC. Time now 2014-Aug-20 14:43 UTC.
Position N 57°30' E 010°32'.

Length 16 m.

Type: Fishing. MMSI: 220046000.

Date/timePositionNaut miles runAvg speedWind from/ knotsBaromVisibWave heightAir tempDewpointWater temp
2014-Aug-20 04:30N 57°30' E 010°32'1 0.6
2014-Aug-20 03:33N 57°30' E 010°33'4 3.7
2014-Aug-20 02:33N 57°31' E 010°39'3 2.6
2014-Aug-20 01:29N 57°34' E 010°39'0 0.5
2014-Aug-20 00:32N 57°34' E 010°40'3 2.6
2014-Aug-19 23:31N 57°31' E 010°40'3 1.4
2014-Aug-19 21:34N 57°34' E 010°38'1 0.6
2014-Aug-19 20:33N 57°34' E 010°39'3 2.6
2014-Aug-19 19:27N 57°32' E 010°39'5 1.2
2014-Aug-19 15:16N 57°30' E 010°30'0 0.0
2014-Aug-19 14:32N 57°30' E 010°30'0 0.0
2014-Aug-19 10:26N 57°30' E 010°30'0 0.0
2014-Aug-19 09:31N 57°30' E 010°30'0 0.0
2014-Aug-19 08:26N 57°30' E 010°30'0 0.0
2014-Aug-19 07:26N 57°30' E 010°30'0 0.0
2014-Aug-19 06:30N 57°30' E 010°30'0 0.0
2014-Aug-19 05:33N 57°30' E 010°30'0 0.0
2014-Aug-19 04:30N 57°30' E 010°30'0 0.0
2014-Aug-19 03:32N 57°30' E 010°30'0 0.4
2014-Aug-19 02:32N 57°30' E 010°31'3 2.3
2014-Aug-19 01:19N 57°31' E 010°36'2 2.7
2014-Aug-19 00:32N 57°30' E 010°40'1 0.1
2014-Aug-18 03:13N 57°31' E 010°39'2 2.5
2014-Aug-18 02:34N 57°33' E 010°39'3 2.5
2014-Aug-18 01:33N 57°35' E 010°39'2 2.2
2014-Aug-18 00:33N 57°33' E 010°39'6 0.6
2014-Aug-17 15:10N 57°30' E 010°30'0 0.0
2014-Aug-17 14:25N 57°30' E 010°30'0 0.0
2014-Aug-17 05:22N 57°30' E 010°30'0 0.0
2014-Aug-17 04:32N 57°30' E 010°30'0 0.0
2014-Aug-17 03:32N 57°30' E 010°30'0 0.0
2014-Aug-17 02:29N 57°30' E 010°30'0 0.0
2014-Aug-17 01:31N 57°30' E 010°30'0 0.0
2014-Aug-17 00:30N 57°30' E 010°30'0 0.0
2014-Aug-16 23:29N 57°30' E 010°30'0 0.0
2014-Aug-16 22:28N 57°30' E 010°30'0 0.0
2014-Aug-16 21:33N 57°30' E 010°30'0 0.0
2014-Aug-16 05:31N 57°30' E 010°30'0 0.0
2014-Aug-16 04:33N 57°30' E 010°30'0 0.0
2014-Aug-16 03:34N 57°30' E 010°30'0 0.0
2014-Aug-16 02:33N 57°30' E 010°30'0 0.0
2014-Aug-16 01:33N 57°30' E 010°30'0 0.0
2014-Aug-16 00:33N 57°30' E 010°30'0 0.0
2014-Aug-15 23:34N 57°30' E 010°30'0 0.0
2014-Aug-15 22:34N 57°30' E 010°30'0 0.0
2014-Aug-15 21:33N 57°30' E 010°30'0 0.0
2014-Aug-15 20:33N 57°30' E 010°30'0 0.0
2014-Aug-15 19:30N 57°30' E 010°30'0 0.0
2014-Aug-15 05:27N 57°30' E 010°30'2 1.4
2014-Aug-15 04:18N 57°29' E 010°33'2 2.9
2014-Aug-15 03:31N 57°29' E 010°37'2 2.0
2014-Aug-15 02:33N 57°30' E 010°40'3 2.5
2014-Aug-15 01:33N 57°32' E 010°39'3 2.5
2014-Aug-15 00:31N 57°35' E 010°38'2 2.5
2014-Aug-14 23:33N 57°33' E 010°38'2 1.8
2014-Aug-14 22:28N 57°31' E 010°39'2 2.6
2014-Aug-14 21:33N 57°33' E 010°38'1 0.6
2014-Aug-14 20:34N 57°33' E 010°39'3 2.6
2014-Aug-14 19:29N 57°30' E 010°40'5 2.5
2014-Aug-14 17:25N 57°30' E 010°30'0 0.0
2014-Aug-14 11:25N 57°30' E 010°30'0 0.0
2014-Aug-14 10:18N 57°30' E 010°30'0 0.0
2014-Aug-14 06:27N 57°30' E 010°30'2 1.8
2014-Aug-14 05:32N 57°29' E 010°33'4 1.2
2014-Aug-14 02:22N 57°29' E 010°40'2 2.6
2014-Aug-14 01:32N 57°31' E 010°39'2 2.5
2014-Aug-14 00:33N 57°34' E 010°39'2 2.5
2014-Aug-13 23:34N 57°36' E 010°40'0 0.3
2014-Aug-13 22:33N 57°36' E 010°39'3 2.6
2014-Aug-13 21:33N 57°33' E 010°38'3 2.6
2014-Aug-13 20:14N 57°30' E 010°40'5 1.7
2014-Aug-13 17:15N 57°30' E 010°30'0 0.0
2014-Aug-13 16:19N 57°30' E 010°30'0 0.0
2014-Aug-13 14:20N 57°30' E 010°30'0 0.0
2014-Aug-13 13:32N 57°30' E 010°30'0 0.0
2014-Aug-13 12:33N 57°30' E 010°30'0 0.0
2014-Aug-13 11:32N 57°30' E 010°30'0 0.0
2014-Aug-13 10:32N 57°30' E 010°30'0 0.0
2014-Aug-13 07:29N 57°30' E 010°30'5 1.3
2014-Aug-13 03:31N 57°31' E 010°39'1 0.3
2014-Aug-13 01:32N 57°31' E 010°40'2 2.4
2014-Aug-13 00:33N 57°33' E 010°40'2 2.3
2014-Aug-12 23:33N 57°36' E 010°40'1 1.1
2014-Aug-12 22:33N 57°37' E 010°40'3 2.6
2014-Aug-12 21:33N 57°34' E 010°39'3 2.7
2014-Aug-12 20:33N 57°31' E 010°40'6 0.2
2014-Aug-11 13:33N 57°30' E 010°30'0 0.0
2014-Aug-11 11:19N 57°30' E 010°30'0 0.0
2014-Aug-11 05:31N 57°30' E 010°30'0 0.0
2014-Aug-11 03:23N 57°30' E 010°30'0 0.0
2014-Aug-11 02:32N 57°30' E 010°30'0 0.0
2014-Aug-11 01:31N 57°30' E 010°30'0 0.0
2014-Aug-11 00:29N 57°30' E 010°30'  
Track history (hours):
 
Tides and Currents Weather Stations Pressure Air Temp Water Temp Dewpoint Dewpoint Depression Visibility Wind Speed Wind Dir Waves Ship Positions

Jette Viking Hv77

Last reported at 2014-Aug-20 04:30 UTC. Time now 2014-Aug-20 14:43 UTC.
Position N 57°30' E 010°32'.

Length 16 m.

Type: Fishing. MMSI: 220046000.

Date/timePositionNaut miles runAvg speedWind from/ knotsBaromVisibWave heightAir tempDewpointWater temp
2014-Aug-20 04:30N 57°30' E 010°32'1 0.6
2014-Aug-20 03:33N 57°30' E 010°33'4 3.7
2014-Aug-20 02:33N 57°31' E 010°39'3 2.6
2014-Aug-20 01:29N 57°34' E 010°39'0 0.5
2014-Aug-20 00:32N 57°34' E 010°40'3 2.6
2014-Aug-19 23:31N 57°31' E 010°40'3 1.4
2014-Aug-19 21:34N 57°34' E 010°38'1 0.6
2014-Aug-19 20:33N 57°34' E 010°39'3 2.6
2014-Aug-19 19:27N 57°32' E 010°39'5 1.2
2014-Aug-19 15:16N 57°30' E 010°30'0 0.0
2014-Aug-19 14:32N 57°30' E 010°30'0 0.0
2014-Aug-19 10:26N 57°30' E 010°30'0 0.0
2014-Aug-19 09:31N 57°30' E 010°30'0 0.0
2014-Aug-19 08:26N 57°30' E 010°30'0 0.0
2014-Aug-19 07:26N 57°30' E 010°30'0 0.0
2014-Aug-19 06:30N 57°30' E 010°30'0 0.0
2014-Aug-19 05:33N 57°30' E 010°30'0 0.0
2014-Aug-19 04:30N 57°30' E 010°30'0 0.0
2014-Aug-19 03:32N 57°30' E 010°30'0 0.4
2014-Aug-19 02:32N 57°30' E 010°31'3 2.3
2014-Aug-19 01:19N 57°31' E 010°36'2 2.7
2014-Aug-19 00:32N 57°30' E 010°40'1 0.1
2014-Aug-18 03:13N 57°31' E 010°39'2 2.5
2014-Aug-18 02:34N 57°33' E 010°39'3 2.5
2014-Aug-18 01:33N 57°35' E 010°39'2 2.2
2014-Aug-18 00:33N 57°33' E 010°39'6 0.6
2014-Aug-17 15:10N 57°30' E 010°30'0 0.0
2014-Aug-17 14:25N 57°30' E 010°30'0 0.0
2014-Aug-17 05:22N 57°30' E 010°30'0 0.0
2014-Aug-17 04:32N 57°30' E 010°30'0 0.0
2014-Aug-17 03:32N 57°30' E 010°30'0 0.0
2014-Aug-17 02:29N 57°30' E 010°30'0 0.0
2014-Aug-17 01:31N 57°30' E 010°30'0 0.0
2014-Aug-17 00:30N 57°30' E 010°30'0 0.0
2014-Aug-16 23:29N 57°30' E 010°30'0 0.0
2014-Aug-16 22:28N 57°30' E 010°30'0 0.0
2014-Aug-16 21:33N 57°30' E 010°30'0 0.0
2014-Aug-16 05:31N 57°30' E 010°30'0 0.0
2014-Aug-16 04:33N 57°30' E 010°30'0 0.0
2014-Aug-16 03:34N 57°30' E 010°30'0 0.0
2014-Aug-16 02:33N 57°30' E 010°30'0 0.0
2014-Aug-16 01:33N 57°30' E 010°30'0 0.0
2014-Aug-16 00:33N 57°30' E 010°30'0 0.0
2014-Aug-15 23:34N 57°30' E 010°30'0 0.0
2014-Aug-15 22:34N 57°30' E 010°30'0 0.0
2014-Aug-15 21:33N 57°30' E 010°30'0 0.0
2014-Aug-15 20:33N 57°30' E 010°30'0 0.0
2014-Aug-15 19:30N 57°30' E 010°30'0 0.0
2014-Aug-15 05:27N 57°30' E 010°30'2 1.4
2014-Aug-15 04:18N 57°29' E 010°33'2 2.9
2014-Aug-15 03:31N 57°29' E 010°37'2 2.0
2014-Aug-15 02:33N 57°30' E 010°40'3 2.5
2014-Aug-15 01:33N 57°32' E 010°39'3 2.5
2014-Aug-15 00:31N 57°35' E 010°38'2 2.5
2014-Aug-14 23:33N 57°33' E 010°38'2 1.8
2014-Aug-14 22:28N 57°31' E 010°39'2 2.6
2014-Aug-14 21:33N 57°33' E 010°38'1 0.6
2014-Aug-14 20:34N 57°33' E 010°39'3 2.6
2014-Aug-14 19:29N 57°30' E 010°40'5 2.5
2014-Aug-14 17:25N 57°30' E 010°30'0 0.0
2014-Aug-14 11:25N 57°30' E 010°30'0 0.0
2014-Aug-14 10:18N 57°30' E 010°30'0 0.0
2014-Aug-14 06:27N 57°30' E 010°30'2 1.8
2014-Aug-14 05:32N 57°29' E 010°33'4 1.2
2014-Aug-14 02:22N 57°29' E 010°40'2 2.6
2014-Aug-14 01:32N 57°31' E 010°39'2 2.5
2014-Aug-14 00:33N 57°34' E 010°39'2 2.5
2014-Aug-13 23:34N 57°36' E 010°40'0 0.3
2014-Aug-13 22:33N 57°36' E 010°39'3 2.6
2014-Aug-13 21:33N 57°33' E 010°38'3 2.6
2014-Aug-13 20:14N 57°30' E 010°40'5 1.7
2014-Aug-13 17:15N 57°30' E 010°30'0 0.0
2014-Aug-13 16:19N 57°30' E 010°30'0 0.0
2014-Aug-13 14:20N 57°30' E 010°30'0 0.0
2014-Aug-13 13:32N 57°30' E 010°30'0 0.0
2014-Aug-13 12:33N 57°30' E 010°30'0 0.0
2014-Aug-13 11:32N 57°30' E 010°30'0 0.0
2014-Aug-13 10:32N 57°30' E 010°30'0 0.0
2014-Aug-13 07:29N 57°30' E 010°30'5 1.3
2014-Aug-13 03:31N 57°31' E 010°39'1 0.3
2014-Aug-13 01:32N 57°31' E 010°40'2 2.4
2014-Aug-13 00:33N 57°33' E 010°40'2 2.3
2014-Aug-12 23:33N 57°36' E 010°40'1 1.1
2014-Aug-12 22:33N 57°37' E 010°40'3 2.6
2014-Aug-12 21:33N 57°34' E 010°39'3 2.7
2014-Aug-12 20:33N 57°31' E 010°40'6 0.2
2014-Aug-11 13:33N 57°30' E 010°30'0 0.0
2014-Aug-11 11:19N 57°30' E 010°30'0 0.0
2014-Aug-11 05:31N 57°30' E 010°30'0 0.0
2014-Aug-11 03:23N 57°30' E 010°30'0 0.0
2014-Aug-11 02:32N 57°30' E 010°30'0 0.0
2014-Aug-11 01:31N 57°30' E 010°30'0 0.0
2014-Aug-11 00:29N 57°30' E 010°30'  

Dump ship's entire track history